Time,TemperatureF,DewpointF,PressureIn,WindDirection,WindDirectionDegrees,WindSpeedMPH,WindSpeedGustMPH,Humidity,HourlyPrecipIn,Conditions,Clouds,dailyrainin,SolarRadiationWatts/m^2,SoftwareType,DateUTC
2013-02-20 00:00:00,45.5,39.7,29.70,WNW,282,7.0,7.0,80,0.00,,,0.00,0,Wunderground v.1.15,2013-02-20 08:00:00,
2013-02-20 00:05:00,45.6,39.5,29.70,West,264,3.0,7.0,79,0.00,,,0.00,0,Wunderground v.1.15,2013-02-20 08:05:00,
2013-02-20 00:15:00,45.8,39.0,29.70,West,274,4.0,4.0,77,0.00,,,0.00,0,Wunderground v.1.15,2013-02-20 08:15:00,
2013-02-20 00:20:00,46.0,38.5,29.70,West,267,4.0,4.0,75,0.00,,,0.00,0,Wunderground v.1.15,2013-02-20 08:20:00,
2013-02-20 00:30:00,46.0,37.8,29.71,WNW,289,4.0,4.0,73,0.00,,,0.00,0,Wunderground v.1.15,2013-02-20 08:30:00,
2013-02-20 00:39:00,46.1,37.9,29.71,WNW,285,3.0,3.0,73,0.00,,,0.00,0,Wunderground v.1.15,2013-02-20 08:39:00,
2013-02-20 00:44:00,46.3,37.8,29.71,South,190,6.0,6.0,72,0.00,,,0.00,0,Wunderground v.1.15,2013-02-20 08:44:00,
2013-02-20 00:50:00,46.6,38.1,29.70,West,264,3.0,3.0,72,0.00,,,0.00,0,Wunderground v.1.15,2013-02-20 08:50:00,
2013-02-20 00:55:00,46.7,38.1,29.70,WSW,254,4.0,4.0,72,0.00,,,0.00,0,Wunderground v.1.15,2013-02-20 08:55:00,
2013-02-20 01:00:00,46.9,38.0,29.71,West,270,2.0,2.0,71,0.00,,,0.00,0,Wunderground v.1.15,2013-02-20 09:00:00,
2013-02-20 01:05:00,46.9,37.6,29.71,WSW,247,3.0,3.0,70,0.00,,,0.00,0,Wunderground v.1.15,2013-02-20 09:05:00,
2013-02-20 01:15:00,47.0,37.7,29.71,West,263,3.0,3.0,70,0.00,,,0.00,0,Wunderground v.1.15,2013-02-20 09:15:00,
2013-02-20 01:20:00,47.0,37.0,29.70,West,262,3.0,3.0,68,0.00,,,0.00,0,Wunderground v.1.15,2013-02-20 09:20:00,
2013-02-20 01:30:00,46.8,36.0,29.70,NW,305,5.0,5.0,66,0.00,,,0.00,0,Wunderground v.1.15,2013-02-20 09:30:00,
2013-02-20 01:39:00,46.8,36.0,29.71,WSW,238,4.0,4.0,66,0.00,,,0.00,0,Wunderground v.1.15,2013-02-20 09:39:00,
2013-02-20 01:45:00,46.9,35.7,29.70,WNW,292,4.0,4.0,65,0.00,,,0.00,0,Wunderground v.1.15,2013-02-20 09:45:00,
2013-02-20 01:50:00,47.0,35.4,29.71,WSW,250,4.0,4.0,64,0.00,,,0.00,0,Wunderground v.1.15,2013-02-20 09:50:00,
2013-02-20 01:55:00,47.0,35.8,29.71,West,276,3.0,4.0,65,0.00,,,0.00,0,Wunderground v.1.15,2013-02-20 09:55:00,
2013-02-20 02:05:00,46.8,36.4,29.70,WSW,249,4.0,7.0,67,0.00,,,0.00,0,Wunderground v.1.15,2013-02-20 10:05:00,
2013-02-20 02:14:00,46.6,35.8,29.70,West,261,4.0,5.0,66,0.00,,,0.00,0,Wunderground v.1.15,2013-02-20 10:14:00,
2013-02-20 02:20:00,46.6,35.5,29.70,NW,310,5.0,5.0,65,0.00,,,0.00,0,Wunderground v.1.15,2013-02-20 10:20:00,
2013-02-20 02:25:00,46.4,34.1,29.70,West,261,4.0,5.0,62,0.00,,,0.00,0,Wunderground v.1.15,2013-02-20 10:25:00,
2013-02-20 02:35:00,46.2,33.9,29.69,SW,230,7.0,7.0,62,0.00,,,0.00,0,Wunderground v.1.15,2013-02-20 10:35:00,
2013-02-20 02:44:00,46.1,33.4,29.69,WSW,237,8.0,8.0,61,0.00,,,0.00,0,Wunderground v.1.15,2013-02-20 10:44:00,
2013-02-20 02:50:00,46.0,33.7,29.70,West,278,11.0,11.0,62,0.00,,,0.00,0,Wunderground v.1.15,2013-02-20 10:50:00,
2013-02-20 02:55:00,46.1,33.4,29.69,West,264,4.0,11.0,61,0.00,,,0.00,0,Wunderground v.1.15,2013-02-20 10:55:00,
2013-02-20 03:00:00,46.3,34.0,29.69,WSW,252,5.0,5.0,62,0.00,,,0.00,0,Wunderground v.1.15,2013-02-20 11:00:00,
2013-02-20 03:05:00,46.2,33.1,29.69,WSW,252,8.0,8.0,60,0.00,,,0.00,0,Wunderground v.1.15,2013-02-20 11:05:00,
2013-02-20 03:10:00,46.2,33.5,29.69,WNW,294,7.0,7.0,61,0.00,,,0.00,0,Wunderground v.1.15,2013-02-20 11:10:00,
2013-02-20 03:20:00,46.3,33.6,29.69,NW,304,5.0,5.0,61,0.00,,,0.00,0,Wunderground v.1.15,2013-02-20 11:20:00,
2013-02-20 03:25:00,46.2,33.9,29.69,WSW,253,2.0,5.0,62,0.00,,,0.00,0,Wunderground v.1.15,2013-02-20 11:25:00,
2013-02-20 03:30:00,46.2,33.5,29.69,West,275,3.0,3.0,61,0.00,,,0.00,0,Wunderground v.1.15,2013-02-20 11:30:00,
2013-02-20 03:40:00,46.2,33.9,29.69,West,264,3.0,3.0,62,0.00,,,0.00,0,Wunderground v.1.15,2013-02-20 11:40:00,
2013-02-20 03:45:00,46.2,34.3,29.69,WNW,289,4.0,4.0,63,0.00,,,0.00,0,Wunderground v.1.15,2013-02-20 11:45:00,
2013-02-20 03:54:00,46.2,34.3,29.69,NW,306,10.0,10.0,63,0.00,,,0.00,0,Wunderground v.1.15,2013-02-20 11:54:00,
2013-02-20 03:59:00,46.1,34.2,29.69,NW,308,4.0,4.0,63,0.00,,,0.00,0,Wunderground v.1.15,2013-02-20 11:59:00,
2013-02-20 04:05:00,46.2,34.3,29.69,West,264,6.0,6.0,63,0.00,,,0.00,0,Wunderground v.1.15,2013-02-20 12:05:00,
2013-02-20 04:14:00,46.3,34.8,29.70,NW,318,13.0,13.0,64,0.00,,,0.00,0,Wunderground v.1.15,2013-02-20 12:14:00,
2013-02-20 04:20:00,46.4,34.5,29.70,West,260,3.0,3.0,63,0.00,,,0.00,0,Wunderground v.1.15,2013-02-20 12:20:00,
2013-02-20 04:25:00,46.3,34.0,29.70,NW,313,0.0,3.0,62,0.00,,,0.00,0,Wunderground v.1.15,2013-02-20 12:25:00,
2013-02-20 04:30:00,46.1,33.4,29.70,WNW,292,4.0,4.0,61,0.00,,,0.00,0,Wunderground v.1.15,2013-02-20 12:30:00,
2013-02-20 04:40:00,45.8,33.1,29.70,WNW,298,9.0,9.0,61,0.00,,,0.00,0,Wunderground v.1.15,2013-02-20 12:40:00,
2013-02-20 04:45:00,45.8,33.1,29.70,WNW,286,1.0,9.0,61,0.00,,,0.00,0,Wunderground v.1.15,2013-02-20 12:45:00,
2013-02-20 04:50:00,45.6,33.7,29.70,NW,316,0.0,0.0,63,0.00,,,0.00,0,Wunderground v.1.15,2013-02-20 12:50:00,
2013-02-20 04:59:00,45.4,33.5,29.70,North,1,0.0,0.0,63,0.00,,,0.00,0,Wunderground v.1.15,2013-02-20 12:59:00,
2013-02-20 05:05:00,45.2,33.7,29.70,NNW,335,0.0,0.0,64,0.00,,,0.00,0,Wunderground v.1.15,2013-02-20 13:05:00,
2013-02-20 05:15:00,44.7,33.3,29.70,NW,318,6.0,6.0,64,0.00,,,0.00,0,Wunderground v.1.15,2013-02-20 13:15:00,
2013-02-20 05:20:00,44.5,33.1,29.71,WNW,301,0.0,0.0,64,0.00,,,0.00,0,Wunderground v.1.15,2013-02-20 13:20:00,
2013-02-20 05:25:00,44.3,32.1,29.71,WNW,301,2.0,2.0,62,0.00,,,0.00,0,Wunderground v.1.15,2013-02-20 13:25:00,
2013-02-20 05:35:00,44.0,31.0,29.71,WNW,303,0.0,2.0,60,0.00,,,0.00,0,Wunderground v.1.15,2013-02-20 13:35:00,
2013-02-20 05:40:00,43.7,31.1,29.71,WNW,286,1.0,1.0,61,0.00,,,0.00,0,Wunderground v.1.15,2013-02-20 13:40:00,
2013-02-20 05:45:00,43.5,30.1,29.71,WNW,303,3.0,3.0,59,0.00,,,0.00,0,Wunderground v.1.15,2013-02-20 13:45:00,
2013-02-20 05:54:00,43.5,29.7,29.72,WNW,298,3.0,3.0,58,0.00,,,0.00,0,Wunderground v.1.15,2013-02-20 13:54:00,
2013-02-20 06:00:00,43.4,30.0,29.71,WNW,303,3.0,3.0,59,0.00,,,0.00,0,Wunderground v.1.15,2013-02-20 14:00:00,
2013-02-20 06:05:00,43.3,29.9,29.72,WNW,285,4.0,4.0,59,0.00,,,0.00,0,Wunderground v.1.15,2013-02-20 14:05:00,
2013-02-20 06:15:00,43.2,29.4,29.72,WNW,297,0.0,1.0,58,0.00,,,0.00,0,Wunderground v.1.15,2013-02-20 14:15:00,
2013-02-20 06:24:00,42.9,28.7,29.72,NW,304,0.0,0.0,57,0.00,,,0.00,0,Wunderground v.1.15,2013-02-20 14:24:00,
2013-02-20 06:30:00,42.6,28.0,29.72,NW,304,0.0,0.0,56,0.00,,,0.00,0,Wunderground v.1.15,2013-02-20 14:30:00,
2013-02-20 06:40:00,42.2,28.9,29.73,NW,304,0.0,0.0,59,0.00,,,0.00,0,Wunderground v.1.15,2013-02-20 14:40:00,
2013-02-20 06:45:00,41.9,28.2,29.73,NW,304,0.0,0.0,58,0.00,,,0.00,0,Wunderground v.1.15,2013-02-20 14:45:00,
2013-02-20 06:54:00,41.4,28.5,29.74,NW,304,0.0,0.0,60,0.00,,,0.00,0,Wunderground v.1.15,2013-02-20 14:54:00,
2013-02-20 07:00:00,41.2,28.4,29.75,NW,304,0.0,0.0,60,0.00,,,0.00,0,Wunderground v.1.15,2013-02-20 15:00:00,
2013-02-20 07:05:00,41.0,28.6,29.75,NW,304,0.0,0.0,61,0.00,,,0.00,0,Wunderground v.1.15,2013-02-20 15:05:00,
2013-02-20 07:15:00,40.9,29.3,29.75,NW,306,1.0,4.0,63,0.00,,,0.00,0,Wunderground v.1.15,2013-02-20 15:15:00,
2013-02-20 07:20:00,41.0,29.0,29.75,NW,306,1.0,1.0,62,0.00,,,0.00,0,Wunderground v.1.15,2013-02-20 15:20:00,
2013-02-20 07:25:00,41.1,29.1,29.75,NW,306,0.0,1.0,62,0.00,,,0.00,0,Wunderground v.1.15,2013-02-20 15:25:00,
2013-02-20 07:35:00,41.5,27.4,29.76,NW,305,2.0,2.0,57,0.00,,,0.00,0,Wunderground v.1.15,2013-02-20 15:35:00,
2013-02-20 07:44:00,42.3,26.8,29.77,NW,325,0.0,0.0,54,0.00,,,0.00,0,Wunderground v.1.15,2013-02-20 15:44:00,
2013-02-20 07:50:00,42.6,27.1,29.76,WNW,294,3.0,3.0,54,0.00,,,0.00,0,Wunderground v.1.15,2013-02-20 15:50:00,
2013-02-20 07:55:00,42.9,27.4,29.77,NW,316,0.0,3.0,54,0.00,,,0.00,0,Wunderground v.1.15,2013-02-20 15:55:00,
2013-02-20 08:00:00,43.3,26.8,29.77,WNW,290,5.0,5.0,52,0.00,,,0.00,0,Wunderground v.1.15,2013-02-20 16:00:00,
2013-02-20 08:05:00,43.6,27.1,29.77,WNW,292,1.0,5.0,52,0.00,,,0.00,0,Wunderground v.1.15,2013-02-20 16:05:00,
2013-02-20 08:15:00,44.0,27.5,29.78,NW,325,3.0,3.0,52,0.00,,,0.00,0,Wunderground v.1.15,2013-02-20 16:15:00,
2013-02-20 08:25:00,44.5,28.0,29.78,NW,315,2.0,2.0,52,0.00,,,0.00,0,Wunderground v.1.15,2013-02-20 16:25:00,
2013-02-20 08:30:00,44.7,28.1,29.78,WNW,299,0.0,0.0,52,0.00,,,0.00,0,Wunderground v.1.15,2013-02-20 16:30:00,
2013-02-20 08:39:00,45.4,27.8,29.78,NNE,19,4.0,4.0,50,0.00,,,0.00,0,Wunderground v.1.15,2013-02-20 16:39:00,
2013-02-20 08:45:00,45.6,28.0,29.78,NW,322,0.0,4.0,50,0.00,,,0.00,0,Wunderground v.1.15,2013-02-20 16:45:00,
2013-02-20 08:50:00,45.9,27.3,29.79,NW,311,9.0,9.0,48,0.00,,,0.00,0,Wunderground v.1.15,2013-02-20 16:50:00,
2013-02-20 08:55:00,46.1,27.5,29.78,WNW,285,6.0,9.0,48,0.00,,,0.00,0,Wunderground v.1.15,2013-02-20 16:55:00,
2013-02-20 09:05:00,46.5,28.3,29.79,NW,311,3.0,8.0,49,0.00,,,0.00,0,Wunderground v.1.15,2013-02-20 17:05:00,
2013-02-20 09:14:00,47.1,27.9,29.80,WNW,303,1.0,1.0,47,0.00,,,0.00,0,Wunderground v.1.15,2013-02-20 17:14:00,
2013-02-20 09:20:00,47.5,28.8,29.80,West,279,2.0,2.0,48,0.00,,,0.00,0,Wunderground v.1.15,2013-02-20 17:20:00,
2013-02-20 09:25:00,47.7,27.9,29.80,NW,308,4.0,4.0,46,0.00,,,0.00,0,Wunderground v.1.15,2013-02-20 17:25:00,
2013-02-20 09:30:00,48.1,28.3,29.81,NW,312,3.0,3.0,46,0.00,,,0.00,0,Wunderground v.1.15,2013-02-20 17:30:00,
2013-02-20 09:40:00,48.9,27.9,29.81,NW,320,0.0,0.0,44,0.00,,,0.00,0,Wunderground v.1.15,2013-02-20 17:40:00,
2013-02-20 09:50:00,49.4,27.2,29.81,NNW,345,0.0,0.0,42,0.00,,,0.00,0,Wunderground v.1.15,2013-02-20 17:50:00,
2013-02-20 09:55:00,49.6,27.4,29.81,NNW,333,5.0,5.0,42,0.00,,,0.00,0,Wunderground v.1.15,2013-02-20 17:55:00,
2013-02-20 10:00:00,50.0,28.4,29.81,West,276,5.0,5.0,43,0.00,,,0.00,0,Wunderground v.1.15,2013-02-20 18:00:00,
2013-02-20 10:05:00,50.5,28.2,29.81,SW,229,1.0,5.0,42,0.00,,,0.00,0,Wunderground v.1.15,2013-02-20 18:05:00,
2013-02-20 10:14:00,50.4,28.1,29.81,SW,227,4.0,4.0,42,0.00,,,0.00,0,Wunderground v.1.15,2013-02-20 18:14:00,
2013-02-20 10:19:00,50.5,28.2,29.81,WSW,238,4.0,4.0,42,0.00,,,0.00,0,Wunderground v.1.15,2013-02-20 18:19:00,
2013-02-20 10:25:00,50.6,28.9,29.82,West,265,3.0,4.0,43,0.00,,,0.00,0,Wunderground v.1.15,2013-02-20 18:25:00,
2013-02-20 10:30:00,51.0,28.7,29.82,WSW,252,2.0,2.0,42,0.00,,,0.00,0,Wunderground v.1.15,2013-02-20 18:30:00,
2013-02-20 10:40:00,51.4,29.1,29.82,WSW,246,4.0,4.0,42,0.00,,,0.00,0,Wunderground v.1.15,2013-02-20 18:40:00,
2013-02-20 10:49:00,52.2,30.4,29.82,WSW,252,9.0,9.0,43,0.00,,,0.00,0,Wunderground v.1.15,2013-02-20 18:49:00,
2013-02-20 10:55:00,52.5,30.0,29.82,WNW,283,4.0,9.0,42,0.00,,,0.00,0,Wunderground v.1.15,2013-02-20 18:55:00,
2013-02-20 11:00:00,52.7,29.0,29.83,WNW,303,5.0,5.0,40,0.00,,,0.00,0,Wunderground v.1.15,2013-02-20 19:00:00,
2013-02-20 11:05:00,52.4,28.8,29.83,SW,226,2.0,5.0,40,0.00,,,0.00,0,Wunderground v.1.15,2013-02-20 19:05:00,
2013-02-20 11:14:00,52.6,31.3,29.83,NW,308,1.0,3.0,44,0.00,,,0.00,0,Wunderground v.1.15,2013-02-20 19:14:00,
2013-02-20 11:20:00,52.6,31.3,29.83,West,265,6.0,6.0,44,0.00,,,0.00,0,Wunderground v.1.15,2013-02-20 19:20:00,
2013-02-20 11:25:00,52.7,31.9,29.83,WNW,292,4.0,6.0,45,0.00,,,0.00,0,Wunderground v.1.15,2013-02-20 19:25:00,
2013-02-20 11:30:00,53.0,32.2,29.84,West,266,7.0,7.0,45,0.00,,,0.00,0,Wunderground v.1.15,2013-02-20 19:30:00,
2013-02-20 11:40:00,53.5,32.7,29.84,WNW,296,3.0,3.0,45,0.00,,,0.00,0,Wunderground v.1.15,2013-02-20 19:40:00,
2013-02-20 11:49:00,53.6,32.2,29.84,WSW,256,10.0,10.0,44,0.00,,,0.00,0,Wunderground v.1.15,2013-02-20 19:49:00,
2013-02-20 11:55:00,53.4,32.6,29.84,WSW,244,2.0,10.0,45,0.00,,,0.00,0,Wunderground v.1.15,2013-02-20 19:55:00,
2013-02-20 12:00:00,53.7,32.8,29.83,WSW,249,5.0,5.0,45,0.00,,,0.00,0,Wunderground v.1.15,2013-02-20 20:00:00,
2013-02-20 12:05:00,53.9,33.6,29.83,WSW,248,5.0,5.0,46,0.00,,,0.00,0,Wunderground v.1.15,2013-02-20 20:05:00,
2013-02-20 12:14:00,53.8,34.6,29.83,West,270,5.0,5.0,48,0.00,,,0.00,0,Wunderground v.1.15,2013-02-20 20:14:00,
2013-02-20 12:19:00,54.2,34.4,29.84,WSW,245,5.0,5.0,47,0.00,,,0.00,0,Wunderground v.1.15,2013-02-20 20:19:00,
2013-02-20 12:24:00,54.1,34.3,29.84,West,271,3.0,5.0,47,0.00,,,0.00,0,Wunderground v.1.15,2013-02-20 20:24:00,
2013-02-20 12:30:00,54.2,34.4,29.84,NW,308,11.0,11.0,47,0.00,,,0.00,0,Wunderground v.1.15,2013-02-20 20:30:00,
2013-02-20 12:39:00,54.6,34.8,29.84,West,280,6.0,6.0,47,0.00,,,0.00,0,Wunderground v.1.15,2013-02-20 20:39:00,
2013-02-20 12:45:00,54.4,34.6,29.84,NW,308,7.0,7.0,47,0.00,,,0.00,0,Wunderground v.1.15,2013-02-20 20:45:00,
2013-02-20 12:50:00,54.6,34.8,29.84,WNW,285,2.0,2.0,47,0.00,,,0.00,0,Wunderground v.1.15,2013-02-20 20:50:00,
2013-02-20 12:59:00,54.6,33.7,29.83,NW,311,4.0,4.0,45,0.00,,,0.00,0,Wunderground v.1.15,2013-02-20 20:59:00,
2013-02-20 13:05:00,54.7,33.8,29.83,WNW,298,3.0,4.0,45,0.00,,,0.00,0,Wunderground v.1.15,2013-02-20 21:05:00,
2013-02-20 13:14:00,54.9,33.9,29.83,WNW,303,4.0,5.0,45,0.00,,,0.00,0,Wunderground v.1.15,2013-02-20 21:14:00,
2013-02-20 13:20:00,55.3,33.7,29.83,West,261,6.0,6.0,44,0.00,,,0.00,0,Wunderground v.1.15,2013-02-20 21:20:00,
2013-02-20 13:25:00,55.4,34.4,29.83,SSW,213,2.0,6.0,45,0.00,,,0.00,0,Wunderground v.1.15,2013-02-20 21:25:00,
2013-02-20 13:35:00,56.4,34.7,29.82,SW,230,3.0,3.0,44,0.00,,,0.00,0,Wunderground v.1.15,2013-02-20 21:35:00,
2013-02-20 13:40:00,56.7,35.0,29.82,WSW,251,0.0,0.0,44,0.00,,,0.00,0,Wunderground v.1.15,2013-02-20 21:40:00,
2013-02-20 13:49:00,57.8,35.4,29.83,West,267,3.0,3.0,43,0.00,,,0.00,0,Wunderground v.1.15,2013-02-20 21:49:00,
2013-02-20 13:55:00,58.3,35.3,29.83,NW,320,2.0,3.0,42,0.00,,,0.00,0,Wunderground v.1.15,2013-02-20 21:55:00,
2013-02-20 14:00:00,58.8,35.7,29.83,WSW,253,3.0,3.0,42,0.00,,,0.00,0,Wunderground v.1.15,2013-02-20 22:00:00,
2013-02-20 14:05:00,58.8,35.1,29.83,WNW,288,3.0,3.0,41,0.00,,,0.00,0,Wunderground v.1.15,2013-02-20 22:05:00,
2013-02-20 14:15:00,59.3,36.8,29.83,WNW,297,5.0,5.0,43,0.00,,,0.00,0,Wunderground v.1.15,2013-02-20 22:15:00,
2013-02-20 14:24:00,58.9,35.8,29.83,WSW,245,7.0,7.0,42,0.00,,,0.00,0,Wunderground v.1.15,2013-02-20 22:24:00,
2013-02-20 14:29:00,57.3,35.0,29.83,West,275,2.0,2.0,43,0.00,,,0.00,0,Wunderground v.1.15,2013-02-20 22:29:00,
2013-02-20 14:35:00,56.9,34.0,29.83,WSW,241,2.0,2.0,42,0.00,,,0.00,0,Wunderground v.1.15,2013-02-20 22:35:00,
2013-02-20 14:44:00,58.2,35.8,29.83,WNW,288,2.0,3.0,43,0.00,,,0.00,0,Wunderground v.1.15,2013-02-20 22:44:00,
2013-02-20 14:50:00,59.2,36.1,29.83,WNW,284,3.0,3.0,42,0.00,,,0.00,0,Wunderground v.1.15,2013-02-20 22:50:00,
2013-02-20 14:55:00,58.9,35.8,29.83,SSW,213,9.0,9.0,42,0.00,,,0.00,0,Wunderground v.1.15,2013-02-20 22:55:00,
2013-02-20 15:05:00,58.1,36.3,29.83,WSW,247,3.0,3.0,44,0.00,,,0.00,0,Wunderground v.1.15,2013-02-20 23:05:00,
2013-02-20 15:14:00,56.9,35.2,29.84,SW,215,1.0,2.0,44,0.00,,,0.00,0,Wunderground v.1.15,2013-02-20 23:14:00,
2013-02-20 15:20:00,56.9,35.2,29.84,SW,226,5.0,5.0,44,0.00,,,0.00,0,Wunderground v.1.15,2013-02-20 23:20:00,
2013-02-20 15:25:00,57.1,35.9,29.85,WSW,240,0.0,5.0,45,0.00,,,0.00,0,Wunderground v.1.15,2013-02-20 23:25:00,
2013-02-20 15:30:00,57.3,35.0,29.85,SSW,211,2.0,2.0,43,0.00,,,0.00,0,Wunderground v.1.15,2013-02-20 23:30:00,
2013-02-20 15:40:00,57.4,35.6,29.85,WSW,245,7.0,7.0,44,0.00,,,0.00,0,Wunderground v.1.15,2013-02-20 23:40:00,
2013-02-20 15:45:00,58.3,36.5,29.85,WSW,250,0.0,7.0,44,0.00,,,0.00,0,Wunderground v.1.15,2013-02-20 23:45:00,
2013-02-20 15:55:00,59.4,36.9,29.85,WNW,286,5.0,5.0,43,0.00,,,0.00,0,Wunderground v.1.15,2013-02-20 23:55:00,
2013-02-20 16:05:00,58.9,36.4,29.86,West,270,1.0,3.0,43,0.00,,,0.00,0,Wunderground v.1.15,2013-02-21 00:05:00,
2013-02-20 16:15:00,59.4,37.5,29.86,WNW,294,2.0,3.0,44,0.00,,,0.00,0,Wunderground v.1.15,2013-02-21 00:15:00,
2013-02-20 16:20:00,58.5,37.2,29.86,SW,236,0.0,0.0,45,0.00,,,0.00,0,Wunderground v.1.15,2013-02-21 00:20:00,
2013-02-20 16:29:00,57.3,37.2,29.86,West,267,1.0,1.0,47,0.00,,,0.00,0,Wunderground v.1.15,2013-02-21 00:29:00,
2013-02-20 16:35:00,57.7,37.6,29.86,WSW,255,3.0,3.0,47,0.00,,,0.00,0,Wunderground v.1.15,2013-02-21 00:35:00,
2013-02-20 16:40:00,57.8,37.7,29.86,WNW,292,4.0,4.0,47,0.00,,,0.00,0,Wunderground v.1.15,2013-02-21 00:40:00,
2013-02-20 16:49:00,58.1,37.4,29.86,SW,219,1.0,1.0,46,0.00,,,0.00,0,Wunderground v.1.15,2013-02-21 00:49:00,
2013-02-20 16:54:00,57.1,37.6,29.86,WNW,301,0.0,1.0,48,0.00,,,0.00,0,Wunderground v.1.15,2013-02-21 00:54:00,
2013-02-20 17:00:00,56.4,36.9,29.87,SW,228,0.0,0.0,48,0.00,,,0.00,0,Wunderground v.1.15,2013-02-21 01:00:00,
2013-02-20 17:05:00,56.0,37.6,29.87,SW,235,2.0,2.0,50,0.00,,,0.00,0,Wunderground v.1.15,2013-02-21 01:05:00,
2013-02-20 17:15:00,56.4,38.0,29.88,NW,304,0.0,0.0,50,0.00,,,0.00,0,Wunderground v.1.15,2013-02-21 01:15:00,
2013-02-20 17:24:00,55.5,37.1,29.88,SSW,201,1.0,1.0,50,0.00,,,0.00,0,Wunderground v.1.15,2013-02-21 01:24:00,
2013-02-20 17:30:00,54.6,37.3,29.89,SSW,211,2.0,2.0,52,0.00,,,0.00,0,Wunderground v.1.15,2013-02-21 01:30:00,
2013-02-20 17:40:00,53.4,37.2,29.90,SW,221,0.0,0.0,54,0.00,,,0.00,0,Wunderground v.1.15,2013-02-21 01:40:00,
2013-02-20 17:45:00,53.0,37.3,29.89,SW,233,0.0,0.0,55,0.00,,,0.00,0,Wunderground v.1.15,2013-02-21 01:45:00,
2013-02-20 17:50:00,52.5,36.8,29.90,WSW,249,2.0,2.0,55,0.00,,,0.00,0,Wunderground v.1.15,2013-02-21 01:50:00,
2013-02-20 18:00:00,52.2,37.0,29.90,WSW,238,0.0,0.0,56,0.00,,,0.00,0,Wunderground v.1.15,2013-02-21 02:00:00,
2013-02-20 18:05:00,52.1,36.4,29.90,WSW,239,0.0,0.0,55,0.00,,,0.00,0,Wunderground v.1.15,2013-02-21 02:05:00,
2013-02-20 18:15:00,51.9,36.7,29.90,WSW,238,0.0,0.0,56,0.00,,,0.00,0,Wunderground v.1.15,2013-02-21 02:15:00,
2013-02-20 18:20:00,51.8,36.6,29.90,WSW,238,0.0,0.0,56,0.00,,,0.00,0,Wunderground v.1.15,2013-02-21 02:20:00,
2013-02-20 18:29:00,51.7,36.9,29.91,WSW,239,0.0,0.0,57,0.00,,,0.00,0,Wunderground v.1.15,2013-02-21 02:29:00,
2013-02-20 18:35:00,51.6,37.3,29.91,WSW,239,0.0,0.0,58,0.00,,,0.00,0,Wunderground v.1.15,2013-02-21 02:35:00,
2013-02-20 18:45:00,51.5,37.2,29.91,WSW,238,0.0,0.0,58,0.00,,,0.00,0,Wunderground v.1.15,2013-02-21 02:45:00,
2013-02-20 18:50:00,51.2,36.9,29.91,WSW,239,0.0,0.0,58,0.00,,,0.00,0,Wunderground v.1.15,2013-02-21 02:50:00,
2013-02-20 18:55:00,50.8,37.4,29.92,WSW,238,0.0,0.0,60,0.00,,,0.00,0,Wunderground v.1.15,2013-02-21 02:55:00,
2013-02-20 19:05:00,50.6,36.8,29.92,WSW,238,0.0,0.0,59,0.00,,,0.00,0,Wunderground v.1.15,2013-02-21 03:05:00,
2013-02-20 19:14:00,50.8,37.0,29.92,WSW,239,0.0,0.0,59,0.00,,,0.00,0,Wunderground v.1.15,2013-02-21 03:14:00,
2013-02-20 19:19:00,50.7,36.5,29.92,WSW,238,0.0,0.0,58,0.00,,,0.00,0,Wunderground v.1.15,2013-02-21 03:19:00,
2013-02-20 19:25:00,50.2,36.0,29.92,WSW,239,0.0,0.0,58,0.00,,,0.00,0,Wunderground v.1.15,2013-02-21 03:25:00,
2013-02-20 19:34:00,49.2,36.3,29.92,WSW,238,0.0,0.0,61,0.00,,,0.00,0,Wunderground v.1.15,2013-02-21 03:34:00,
2013-02-20 19:40:00,48.9,36.4,29.93,WSW,238,0.0,0.0,62,0.00,,,0.00,0,Wunderground v.1.15,2013-02-21 03:40:00,
2013-02-20 19:50:00,48.6,36.6,29.93,WSW,238,0.0,0.0,63,0.00,,,0.00,0,Wunderground v.1.15,2013-02-21 03:50:00,
2013-02-20 20:00:00,48.4,36.8,29.93,WSW,238,0.0,0.0,64,0.00,,,0.00,0,Wunderground v.1.15,2013-02-21 04:00:00,
2013-02-20 20:05:00,48.5,36.9,29.93,WSW,238,0.0,0.0,64,0.00,,,0.00,0,Wunderground v.1.15,2013-02-21 04:05:00,
2013-02-20 20:10:00,48.6,37.4,29.94,WSW,239,0.0,0.0,65,0.00,,,0.00,0,Wunderground v.1.15,2013-02-21 04:10:00,
2013-02-20 20:19:00,48.6,37.0,29.94,WSW,239,0.0,0.0,64,0.00,,,0.00,0,Wunderground v.1.15,2013-02-21 04:19:00,
2013-02-20 20:25:00,48.6,37.0,29.94,WSW,238,0.0,0.0,64,0.00,,,0.00,0,Wunderground v.1.15,2013-02-21 04:25:00,
2013-02-20 20:34:00,48.5,36.9,29.95,WSW,238,0.0,0.0,64,0.00,,,0.00,0,Wunderground v.1.15,2013-02-21 04:34:00,
2013-02-20 20:40:00,48.5,36.9,29.95,WSW,238,0.0,0.0,64,0.00,,,0.00,0,Wunderground v.1.15,2013-02-21 04:40:00,
2013-02-20 20:50:00,48.3,36.7,29.95,WSW,239,0.0,0.0,64,0.00,,,0.00,0,Wunderground v.1.15,2013-02-21 04:50:00,
2013-02-20 21:00:00,48.3,36.3,29.95,WSW,238,0.0,0.0,63,0.00,,,0.00,0,Wunderground v.1.15,2013-02-21 05:00:00,
2013-02-20 21:05:00,48.4,36.4,29.95,WSW,238,0.0,0.0,63,0.00,,,0.00,0,Wunderground v.1.15,2013-02-21 05:05:00,
2013-02-20 21:10:00,48.6,36.6,29.95,WSW,239,0.0,0.0,63,0.00,,,0.00,0,Wunderground v.1.15,2013-02-21 05:10:00,
2013-02-20 21:20:00,48.4,36.4,29.96,WSW,238,0.0,0.0,63,0.00,,,0.00,0,Wunderground v.1.15,2013-02-21 05:20:00,
2013-02-20 21:25:00,48.2,35.8,29.96,WSW,239,0.0,0.0,62,0.00,,,0.00,0,Wunderground v.1.15,2013-02-21 05:25:00,
2013-02-20 21:34:00,47.8,35.8,29.96,WSW,239,0.0,0.0,63,0.00,,,0.00,0,Wunderground v.1.15,2013-02-21 05:34:00,
2013-02-20 21:40:00,47.7,36.1,29.97,WSW,238,0.0,0.0,64,0.00,,,0.00,0,Wunderground v.1.15,2013-02-21 05:40:00,
2013-02-20 21:49:00,47.7,35.7,29.97,WSW,238,0.0,0.0,63,0.00,,,0.00,0,Wunderground v.1.15,2013-02-21 05:49:00,
2013-02-20 21:55:00,47.6,36.0,29.97,WSW,238,0.0,0.0,64,0.00,,,0.00,0,Wunderground v.1.15,2013-02-21 05:55:00,
2013-02-20 22:00:00,47.6,35.6,29.97,WSW,238,0.0,0.0,63,0.00,,,0.00,0,Wunderground v.1.15,2013-02-21 06:00:00,
2013-02-20 22:05:00,47.5,35.5,29.97,WSW,238,0.0,0.0,63,0.00,,,0.00,0,Wunderground v.1.15,2013-02-21 06:05:00,
2013-02-20 22:15:00,47.3,35.7,29.97,WSW,239,0.0,0.0,64,0.00,,,0.00,0,Wunderground v.1.15,2013-02-21 06:15:00,
2013-02-20 22:20:00,47.0,35.4,29.97,WSW,239,0.0,0.0,64,0.00,,,0.00,0,Wunderground v.1.15,2013-02-21 06:20:00,
2013-02-20 22:29:00,46.6,35.1,29.97,WSW,238,0.0,0.0,64,0.00,,,0.00,0,Wunderground v.1.15,2013-02-21 06:29:00,
2013-02-20 22:35:00,46.5,35.0,29.97,WSW,239,0.0,0.0,64,0.00,,,0.00,0,Wunderground v.1.15,2013-02-21 06:35:00,
2013-02-20 22:44:00,46.5,34.2,29.97,WSW,239,0.0,0.0,62,0.00,,,0.00,0,Wunderground v.1.15,2013-02-21 06:44:00,
2013-02-20 22:50:00,46.6,34.3,29.97,WSW,238,0.0,0.0,62,0.00,,,0.00,0,Wunderground v.1.15,2013-02-21 06:50:00,
2013-02-20 22:55:00,46.5,34.2,29.97,WSW,238,0.0,0.0,62,0.00,,,0.00,0,Wunderground v.1.15,2013-02-21 06:55:00,
2013-02-20 23:05:00,46.3,34.0,29.97,WSW,238,0.0,0.0,62,0.00,,,0.00,0,Wunderground v.1.15,2013-02-21 07:05:00,
2013-02-20 23:15:00,45.9,33.6,29.97,WSW,239,0.0,0.0,62,0.00,,,0.00,0,Wunderground v.1.15,2013-02-21 07:15:00,
2013-02-20 23:20:00,45.9,34.0,29.98,WSW,239,0.0,0.0,63,0.00,,,0.00,0,Wunderground v.1.15,2013-02-21 07:20:00,
2013-02-20 23:29:00,46.1,34.6,29.98,WSW,239,0.0,0.0,64,0.00,,,0.00,0,Wunderground v.1.15,2013-02-21 07:29:00,
2013-02-20 23:39:00,46.2,34.7,29.98,WSW,238,1.0,1.0,64,0.00,,,0.00,0,Wunderground v.1.15,2013-02-21 07:39:00,
2013-02-20 23:44:00,46.2,34.7,29.99,WSW,238,1.0,1.0,64,0.00,,,0.00,0,Wunderground v.1.15,2013-02-21 07:44:00,
2013-02-20 23:50:00,46.3,34.8,29.98,WSW,238,0.0,0.0,64,0.00,,,0.00,0,Wunderground v.1.15,2013-02-21 07:50:00,
2013-02-20 23:55:00,46.3,34.4,29.98,WSW,238,0.0,0.0,63,0.00,,,0.00,0,Wunderground v.1.15,2013-02-21 07:55:00,